createdAt,value
2019-03-12T00:01:54.540Z,2.60
2019-03-12T00:04:24.871Z,2.70
2019-03-12T00:06:55.204Z,2.70
2019-03-12T00:09:25.533Z,2.70
2019-03-12T00:11:55.867Z,2.80
2019-03-12T00:14:26.202Z,2.80
2019-03-12T00:16:56.544Z,2.80
2019-03-12T00:19:26.897Z,2.90
2019-03-12T00:21:57.225Z,3.00
2019-03-12T00:24:27.559Z,3.10
2019-03-12T00:26:57.882Z,3.10
2019-03-12T00:29:28.249Z,3.20
2019-03-12T00:31:58.574Z,3.20
2019-03-12T00:34:28.923Z,3.30
2019-03-12T00:36:59.243Z,3.30
2019-03-12T00:39:29.586Z,3.40
2019-03-12T00:41:59.908Z,3.50
2019-03-12T00:44:30.248Z,3.50
2019-03-12T00:47:00.592Z,3.60
2019-03-12T00:49:30.945Z,3.70
2019-03-12T00:52:01.353Z,3.70
2019-03-12T00:54:31.694Z,3.80
2019-03-12T00:57:02.035Z,3.80
2019-03-12T00:59:32.377Z,3.80
2019-03-12T01:02:02.709Z,3.90
2019-03-12T01:04:33.066Z,3.90
2019-03-12T01:07:03.403Z,4.00
2019-03-12T01:09:33.746Z,4.00
2019-03-12T01:12:04.061Z,4.00
2019-03-12T01:14:34.407Z,4.10
2019-03-12T01:17:04.740Z,4.10
2019-03-12T01:19:35.078Z,4.10
2019-03-12T01:22:05.415Z,4.10
2019-03-12T01:24:35.746Z,4.20
2019-03-12T01:27:06.091Z,4.20
2019-03-12T01:29:36.433Z,4.30
2019-03-12T01:32:06.774Z,4.30
2019-03-12T01:34:37.111Z,4.40
2019-03-12T01:37:07.457Z,4.40
2019-03-12T01:39:37.793Z,4.40
2019-03-12T01:42:08.136Z,4.40
2019-03-12T01:44:38.480Z,4.40
2019-03-12T01:47:08.827Z,4.40
2019-03-12T01:49:39.162Z,4.40
2019-03-12T01:52:09.503Z,4.40
2019-03-12T01:54:39.838Z,4.40
2019-03-12T01:57:10.176Z,4.40
2019-03-12T01:59:40.509Z,4.40
2019-03-12T02:02:10.928Z,4.50
2019-03-12T02:04:41.823Z,4.50
2019-03-12T02:07:12.162Z,4.60
2019-03-12T02:09:42.500Z,4.60
2019-03-12T02:12:13.039Z,4.60
2019-03-12T02:14:43.371Z,4.70
2019-03-12T02:17:13.710Z,4.70
2019-03-12T02:19:44.038Z,4.70
2019-03-12T02:22:14.384Z,4.70
2019-03-12T02:24:52.528Z,4.80
2019-03-12T02:27:16.764Z,4.80
2019-03-12T02:29:47.105Z,4.80
2019-03-12T02:32:17.449Z,4.90
2019-03-12T02:34:47.777Z,4.90
2019-03-12T02:37:18.129Z,4.90
2019-03-12T02:39:48.464Z,4.90
2019-03-12T02:42:18.814Z,4.90
2019-03-12T02:44:49.154Z,4.90
2019-03-12T02:47:19.499Z,4.90
2019-03-12T02:49:49.827Z,4.80
2019-03-12T02:52:20.197Z,4.80
2019-03-12T02:54:50.534Z,4.80
2019-03-12T02:57:21.010Z,4.80
2019-03-12T02:59:51.788Z,4.90
2019-03-12T03:02:22.231Z,4.90
2019-03-12T03:04:54.265Z,5.00
2019-03-12T03:07:42.385Z,5.00
2019-03-12T03:10:14.454Z,5.00
2019-03-12T03:12:44.785Z,5.00
2019-03-12T03:15:24.458Z,5.10
2019-03-12T03:17:54.832Z,5.10
2019-03-12T03:20:25.153Z,5.10
2019-03-12T03:22:55.488Z,5.20
2019-03-12T03:25:25.827Z,5.20
2019-03-12T03:27:56.158Z,5.20
2019-03-12T03:30:26.762Z,5.30
2019-03-12T03:32:57.177Z,5.30
2019-03-12T03:35:27.494Z,5.30
2019-03-12T03:37:57.844Z,5.40
2019-03-12T03:40:28.273Z,5.40
2019-03-12T03:42:58.694Z,5.40
2019-03-12T03:45:29.019Z,5.40
2019-03-12T03:47:59.367Z,5.50
2019-03-12T03:50:29.691Z,5.50
2019-03-12T03:53:00.075Z,5.50
2019-03-12T03:55:30.423Z,5.40
2019-03-12T03:58:01.009Z,5.50
2019-03-12T04:00:31.360Z,5.40
2019-03-12T04:03:01.692Z,5.40
2019-03-12T04:05:32.026Z,5.40
2019-03-12T04:08:02.358Z,5.40
2019-03-12T04:10:32.700Z,5.40
2019-03-12T04:13:03.046Z,5.40
2019-03-12T04:15:33.456Z,5.40
2019-03-12T04:18:04.045Z,5.40
2019-03-12T04:20:34.387Z,5.40
2019-03-12T04:23:06.460Z,5.50
2019-03-12T04:25:36.991Z,5.50
2019-03-12T04:28:09.199Z,5.50
2019-03-12T04:30:39.564Z,5.60
2019-03-12T04:33:47.040Z,5.60
2019-03-12T04:36:17.372Z,5.60
2019-03-12T04:38:47.723Z,5.70
2019-03-12T04:41:18.075Z,5.70
2019-03-12T04:43:48.493Z,5.80
2019-03-12T04:46:18.889Z,5.80
2019-03-12T04:48:49.175Z,5.80
2019-03-12T04:51:19.517Z,5.90
2019-03-12T04:53:49.948Z,5.90
2019-03-12T04:56:20.281Z,5.90
2019-03-12T04:58:51.596Z,6.00
2019-03-12T05:01:21.938Z,6.00
2019-03-12T05:03:52.280Z,6.00
2019-03-12T05:06:22.803Z,6.00
2019-03-12T05:08:53.159Z,6.00
2019-03-12T05:11:23.505Z,6.10
2019-03-12T05:14:25.612Z,6.10
2019-03-12T05:16:59.961Z,6.20
2019-03-12T05:19:31.025Z,6.20
2019-03-12T05:22:01.334Z,6.20
2019-03-12T05:24:31.695Z,6.20
2019-03-12T05:27:02.033Z,6.20
2019-03-12T05:29:32.399Z,6.20
2019-03-12T05:32:02.750Z,6.30
2019-03-12T05:34:33.102Z,6.30
2019-03-12T05:37:03.434Z,6.20
2019-03-12T05:39:33.798Z,6.20
2019-03-12T05:42:04.143Z,6.20
2019-03-12T05:44:34.499Z,6.20
2019-03-12T05:47:07.970Z,6.10
2019-03-12T05:49:37.439Z,6.10
2019-03-12T05:52:07.774Z,6.10
2019-03-12T05:54:38.161Z,6.10
2019-03-12T05:57:08.485Z,6.00
2019-03-12T05:59:39.790Z,6.00
2019-03-12T06:02:10.308Z,6.00
2019-03-12T06:04:40.665Z,6.00
2019-03-12T06:07:11.004Z,6.00
2019-03-12T06:09:41.376Z,5.90
2019-03-12T06:12:11.711Z,5.90
2019-03-12T06:14:42.055Z,5.90
2019-03-12T06:17:12.402Z,5.80
2019-03-12T06:19:42.750Z,5.80
2019-03-12T06:22:13.090Z,5.80
2019-03-12T06:24:43.453Z,5.70
2019-03-12T06:27:13.802Z,5.70
2019-03-12T06:29:44.200Z,5.70
2019-03-12T06:32:19.083Z,5.70
2019-03-12T06:34:51.107Z,5.70
2019-03-12T06:37:25.736Z,5.70
2019-03-12T06:40:15.633Z,5.80
2019-03-12T06:42:47.607Z,5.70
2019-03-12T06:45:22.986Z,5.80
2019-03-12T06:47:54.985Z,5.80
2019-03-12T06:50:44.823Z,5.90
2019-03-12T06:53:32.557Z,5.90
2019-03-12T06:56:04.570Z,6.00
2019-03-12T06:58:45.335Z,6.00
2019-03-12T07:01:29.025Z,6.10
2019-03-12T07:04:19.902Z,6.10
2019-03-12T07:06:56.360Z,6.20
2019-03-12T07:09:37.272Z,6.20
2019-03-12T07:12:09.325Z,6.30
2019-03-12T07:14:41.407Z,6.30
2019-03-12T07:17:17.307Z,6.40
2019-03-12T07:19:49.296Z,6.40
2019-03-12T07:22:32.101Z,6.40
2019-03-12T07:25:04.167Z,6.50
2019-03-12T07:27:51.027Z,6.50
2019-03-12T07:30:35.050Z,6.60
2019-03-12T07:33:07.032Z,6.60
2019-03-12T07:35:39.009Z,6.70
2019-03-12T07:38:16.784Z,6.70
2019-03-12T07:40:57.800Z,6.80
2019-03-12T07:43:32.853Z,6.90
2019-03-12T07:46:20.001Z,6.90
2019-03-12T07:48:54.577Z,7.00
2019-03-12T07:51:42.456Z,7.00
2019-03-12T07:54:14.446Z,7.00
2019-03-12T07:56:46.437Z,7.10
2019-03-12T07:59:18.405Z,7.10
2019-03-12T08:02:05.019Z,7.20
2019-03-12T08:04:39.940Z,7.30
2019-03-12T08:07:13.094Z,7.30
2019-03-12T08:10:02.593Z,7.40
2019-03-12T08:12:38.314Z,7.40
2019-03-12T08:15:23.099Z,7.50
2019-03-12T08:17:51.645Z,7.50
2019-03-12T08:20:23.621Z,7.50
2019-03-12T08:23:01.273Z,7.60
2019-03-12T08:25:39.177Z,7.60
2019-03-12T08:28:22.941Z,7.70
2019-03-12T08:31:00.961Z,7.70
2019-03-12T08:33:35.378Z,7.80
2019-03-12T08:36:23.605Z,7.80
2019-03-12T08:39:13.404Z,7.80
2019-03-12T08:41:51.293Z,7.90
2019-03-12T08:44:29.200Z,7.90
2019-03-12T08:47:01.255Z,8.10
2019-03-12T08:49:49.330Z,8.20
2019-03-12T08:52:21.395Z,8.30
2019-03-12T08:54:56.054Z,8.40
2019-03-12T08:57:36.864Z,8.40
2019-03-12T09:00:15.495Z,8.50
2019-03-12T09:03:03.679Z,8.60
2019-03-12T09:05:35.656Z,8.80
2019-03-12T09:08:22.774Z,8.90
2019-03-12T09:11:09.803Z,9.00
2019-03-12T09:13:57.667Z,9.10
2019-03-12T09:16:29.653Z,9.10
2019-03-12T09:19:17.503Z,9.30
2019-03-12T09:22:04.529Z,9.40
2019-03-12T09:24:42.240Z,9.60
2019-03-12T09:27:17.164Z,9.80
2019-03-12T09:29:49.124Z,9.90
2019-03-12T09:32:27.170Z,10.00
2019-03-12T09:35:04.837Z,9.90
2019-03-12T09:37:45.738Z,9.80
2019-03-12T09:40:23.401Z,9.70
2019-03-12T09:42:55.389Z,9.70
2019-03-12T09:45:29.796Z,9.60
2019-03-12T09:48:18.933Z,9.70
2019-03-12T09:50:53.709Z,9.70
2019-03-12T09:53:25.743Z,9.70
2019-03-12T09:56:00.668Z,9.80
2019-03-12T09:58:38.561Z,9.80
2019-03-12T10:01:13.243Z,9.80
2019-03-12T10:03:48.143Z,9.70
2019-03-12T10:06:20.117Z,9.70
2019-03-12T10:09:04.009Z,9.70
2019-03-12T10:11:51.364Z,9.70
2019-03-12T10:14:23.336Z,9.70
2019-03-12T10:16:58.209Z,9.70
2019-03-12T10:19:35.909Z,9.70
2019-03-12T10:22:10.614Z,9.80
2019-03-12T10:24:48.316Z,9.80
2019-03-12T10:27:35.078Z,9.80
2019-03-12T10:30:23.078Z,9.80
2019-03-12T10:32:57.783Z,9.80
2019-03-12T10:35:29.753Z,9.80
2019-03-12T10:38:47.887Z,9.90
2019-03-12T10:41:20.014Z,9.90
2019-03-12T10:43:50.359Z,10.00
2019-03-12T10:46:23.308Z,10.00
2019-03-12T10:48:53.725Z,10.10
2019-03-12T10:51:24.349Z,10.10
2019-03-12T10:53:54.679Z,10.10
2019-03-12T10:56:25.027Z,10.20
2019-03-12T10:58:55.377Z,10.10
2019-03-12T11:01:25.714Z,10.20
2019-03-12T11:03:56.067Z,10.30
2019-03-12T11:06:26.423Z,10.30
2019-03-12T11:08:56.760Z,10.30
2019-03-12T11:11:27.108Z,10.30
2019-03-12T11:13:57.455Z,10.20
2019-03-12T11:16:27.803Z,10.10
2019-03-12T11:18:58.140Z,10.10
2019-03-12T11:21:28.502Z,10.10
2019-03-12T11:23:58.864Z,10.10
2019-03-12T11:26:29.215Z,10.10
2019-03-12T11:28:59.582Z,10.10
2019-03-12T11:31:29.964Z,10.10
2019-03-12T11:34:00.350Z,10.10
2019-03-12T11:36:31.143Z,10.10
2019-03-12T11:39:01.750Z,10.10
2019-03-12T11:41:33.713Z,10.10
2019-03-12T11:44:04.158Z,10.20
2019-03-12T11:46:43.372Z,10.30
2019-03-12T11:49:08.697Z,10.30
2019-03-12T11:51:39.670Z,10.30
2019-03-12T11:54:10.226Z,10.30
2019-03-12T11:56:40.674Z,10.40
2019-03-12T11:59:11.014Z,10.50
2019-03-12T12:01:41.348Z,10.50
2019-03-12T12:04:11.727Z,10.60
2019-03-12T12:06:43.046Z,10.60
2019-03-12T12:09:14.252Z,10.70
2019-03-12T12:11:44.863Z,10.70
2019-03-12T12:14:15.218Z,10.70
2019-03-12T12:16:45.566Z,10.70
2019-03-12T12:19:15.992Z,10.70
2019-03-12T12:21:46.335Z,10.80
2019-03-12T12:24:16.678Z,10.80
2019-03-12T12:26:47.016Z,10.80
2019-03-12T12:29:17.354Z,10.90
2019-03-12T12:31:47.747Z,10.90
2019-03-12T12:34:18.052Z,10.90
2019-03-12T12:36:48.404Z,10.90
2019-03-12T12:39:18.748Z,10.90
2019-03-12T12:41:49.085Z,10.90
2019-03-12T12:44:19.433Z,10.90
2019-03-12T12:46:49.834Z,10.90
2019-03-12T12:49:20.189Z,10.90
2019-03-12T12:51:51.504Z,10.80
2019-03-12T12:54:21.855Z,10.90
2019-03-12T12:56:52.202Z,10.90
2019-03-12T12:59:22.570Z,10.80
2019-03-12T13:01:52.908Z,10.80
2019-03-12T13:04:23.256Z,10.80
2019-03-12T13:06:53.616Z,10.80
2019-03-12T13:09:23.949Z,10.80
2019-03-12T13:11:54.285Z,10.70
2019-03-12T13:14:24.637Z,10.70
2019-03-12T13:16:54.970Z,10.70
2019-03-12T13:19:25.329Z,10.70
2019-03-12T13:21:55.666Z,10.70
2019-03-12T13:24:26.024Z,10.70
2019-03-12T13:26:56.363Z,10.70
2019-03-12T13:29:26.713Z,10.60
2019-03-12T13:31:57.087Z,10.60
2019-03-12T13:34:27.408Z,10.70
2019-03-12T13:36:57.758Z,10.60
2019-03-12T13:39:28.114Z,10.60
2019-03-12T13:41:58.480Z,10.60
2019-03-12T13:44:30.678Z,10.60
2019-03-12T13:47:01.032Z,10.70
2019-03-12T13:49:31.364Z,10.70
2019-03-12T13:52:01.721Z,10.80
2019-03-12T13:54:32.084Z,10.80
2019-03-12T13:57:02.413Z,10.80
2019-03-12T13:59:32.759Z,10.70
2019-03-12T14:02:03.143Z,10.70
2019-03-12T14:04:33.455Z,10.70
2019-03-12T14:07:03.807Z,10.70
2019-03-12T14:09:34.158Z,10.70
2019-03-12T14:12:04.574Z,10.60
2019-03-12T14:14:34.914Z,10.60
2019-03-12T14:17:08.309Z,10.60
2019-03-12T14:19:37.377Z,10.60
2019-03-12T14:22:07.859Z,10.50
2019-03-12T14:24:38.210Z,10.60
2019-03-12T14:27:08.557Z,10.60
2019-03-12T14:29:38.904Z,10.50
2019-03-12T14:32:11.914Z,10.50
2019-03-12T14:34:41.425Z,10.50
2019-03-12T14:37:11.829Z,10.50
2019-03-12T14:39:42.251Z,10.50
2019-03-12T14:42:12.583Z,10.40
2019-03-12T14:44:44.402Z,10.40
2019-03-12T14:47:14.685Z,10.40
2019-03-12T14:49:45.103Z,10.40
2019-03-12T14:52:15.529Z,10.30
2019-03-12T14:54:45.870Z,10.30
2019-03-12T14:57:16.226Z,10.30
2019-03-12T14:59:46.575Z,10.30
2019-03-12T15:02:16.979Z,10.30
2019-03-12T15:04:47.335Z,10.30
2019-03-12T15:07:17.680Z,10.30
2019-03-12T15:09:48.036Z,10.30
2019-03-12T15:12:18.374Z,10.30
2019-03-12T15:14:48.722Z,10.30
2019-03-12T15:17:19.066Z,10.30
2019-03-12T15:19:49.408Z,10.20
2019-03-12T15:22:19.757Z,10.20
2019-03-12T15:24:50.093Z,10.20
2019-03-12T15:27:20.558Z,10.20
2019-03-12T15:29:50.891Z,10.10
2019-03-12T15:32:21.229Z,10.10
2019-03-12T15:34:51.844Z,10.10
2019-03-12T15:37:22.182Z,10.10
2019-03-12T15:39:52.539Z,10.10
2019-03-12T15:42:24.504Z,10.10
2019-03-12T15:44:54.853Z,10.10
2019-03-12T15:47:25.188Z,10.10
2019-03-12T15:49:55.520Z,10.10
2019-03-12T15:52:25.859Z,10.10
2019-03-12T15:54:56.201Z,10.10
2019-03-12T15:57:26.567Z,10.20
2019-03-12T15:59:56.896Z,10.20
2019-03-12T16:02:27.246Z,10.20
2019-03-12T16:04:57.580Z,10.20
2019-03-12T16:07:27.972Z,10.20
2019-03-12T16:09:58.313Z,10.20
2019-03-12T16:12:28.667Z,10.20
2019-03-12T16:14:59.004Z,10.10
2019-03-12T16:17:29.868Z,10.10
2019-03-12T16:20:00.491Z,10.10
2019-03-12T16:22:30.791Z,10.10
2019-03-12T16:25:01.152Z,10.10
2019-03-12T16:27:31.860Z,10.10
2019-03-12T16:30:02.201Z,10.10
2019-03-12T16:32:35.482Z,10.00
2019-03-12T16:35:08.329Z,10.00
2019-03-12T16:37:38.664Z,10.00
2019-03-12T16:40:19.330Z,10.00
2019-03-12T16:42:49.668Z,10.00
2019-03-12T16:45:21.316Z,10.00
2019-03-12T16:47:51.644Z,9.90
2019-03-12T16:50:22.353Z,9.90
2019-03-12T16:52:52.679Z,9.90
2019-03-12T16:55:23.003Z,9.90
2019-03-12T16:57:53.339Z,9.90
2019-03-12T17:00:23.975Z,9.90
2019-03-12T17:02:54.317Z,9.90
2019-03-12T17:05:26.359Z,9.90
2019-03-12T17:07:56.860Z,9.90
2019-03-12T17:10:27.210Z,9.90
2019-03-12T17:12:57.553Z,9.90
2019-03-12T17:15:30.144Z,9.90
2019-03-12T17:18:01.740Z,9.90
2019-03-12T17:20:32.075Z,9.90
2019-03-12T17:23:02.427Z,9.90
2019-03-12T17:25:32.825Z,9.90
2019-03-12T17:28:03.166Z,10.00
2019-03-12T17:30:34.467Z,10.00
2019-03-12T17:33:06.680Z,10.00
2019-03-12T17:35:39.454Z,9.80
2019-03-12T17:38:09.775Z,9.60
2019-03-12T17:40:40.356Z,9.50
2019-03-12T17:43:11.757Z,9.40
2019-03-12T17:45:42.148Z,9.40
2019-03-12T17:48:12.553Z,9.30
2019-03-12T17:50:42.892Z,9.20
2019-03-12T17:53:13.220Z,9.10
2019-03-12T17:55:43.552Z,8.90
2019-03-12T17:58:13.890Z,8.80
2019-03-12T18:00:45.467Z,8.80
2019-03-12T18:03:15.809Z,8.70
2019-03-12T18:05:46.180Z,8.60
2019-03-12T18:08:16.494Z,8.50
2019-03-12T18:10:46.847Z,8.50
2019-03-12T18:13:17.187Z,8.40
2019-03-12T18:15:47.549Z,8.30
2019-03-12T18:18:17.878Z,8.20
2019-03-12T18:20:48.224Z,8.10
2019-03-12T18:23:18.558Z,8.10
2019-03-12T18:25:50.919Z,8.00
2019-03-12T18:28:21.252Z,8.00
2019-03-12T18:30:51.616Z,8.00
2019-03-12T18:33:21.960Z,7.90
2019-03-12T18:35:52.309Z,7.90
2019-03-12T18:38:22.643Z,7.90
2019-03-12T18:40:56.313Z,7.80
2019-03-12T18:43:28.591Z,7.80
2019-03-12T18:45:58.933Z,7.80
2019-03-12T18:48:29.269Z,7.70
2019-03-12T18:50:59.595Z,7.70
2019-03-12T18:53:30.188Z,7.60
2019-03-12T18:56:02.517Z,7.60
2019-03-12T18:58:32.928Z,7.60
2019-03-12T19:01:03.670Z,7.60
2019-03-12T19:03:34.015Z,7.50
2019-03-12T19:06:04.407Z,7.50
2019-03-12T19:08:34.757Z,7.50
2019-03-12T19:11:05.327Z,7.50
2019-03-12T19:13:35.745Z,7.40
2019-03-12T19:16:07.104Z,7.10
2019-03-12T19:18:38.425Z,6.70
2019-03-12T19:21:08.822Z,6.50
2019-03-12T19:23:39.156Z,6.20
2019-03-12T19:26:09.536Z,6.00
2019-03-12T19:28:39.879Z,5.90
2019-03-12T19:31:14.584Z,5.80
2019-03-12T19:33:45.807Z,5.70
2019-03-12T19:36:16.157Z,5.60
2019-03-12T19:38:46.468Z,5.50
2019-03-12T19:41:16.805Z,5.50
2019-03-12T19:43:47.139Z,5.40
2019-03-12T19:46:17.469Z,5.40
2019-03-12T19:48:48.769Z,5.40
2019-03-12T19:51:19.103Z,5.30
2019-03-12T19:53:49.428Z,5.30
2019-03-12T19:56:19.755Z,5.30
2019-03-12T19:58:50.073Z,5.30
2019-03-12T20:01:21.688Z,5.30
2019-03-12T20:03:52.326Z,5.20
2019-03-12T20:06:22.680Z,5.30
2019-03-12T20:08:53.228Z,5.20
2019-03-12T20:11:48.984Z,5.20
2019-03-12T20:14:49.220Z,5.20
2019-03-12T20:17:43.099Z,5.20
2019-03-12T20:20:50.884Z,5.20
2019-03-12T20:23:57.005Z,5.20
2019-03-12T20:26:50.177Z,5.20
2019-03-12T20:29:54.758Z,5.20
2019-03-12T20:33:18.751Z,5.20
2019-03-12T20:36:32.469Z,5.20
2019-03-12T20:39:35.525Z,5.20
2019-03-12T20:42:44.891Z,5.20
2019-03-12T20:46:09.215Z,5.20
2019-03-12T20:49:10.363Z,5.20
2019-03-12T20:52:27.753Z,5.10
2019-03-12T20:55:30.588Z,5.20
2019-03-12T20:58:36.646Z,5.20
2019-03-12T21:01:37.802Z,5.20
2019-03-12T21:04:43.741Z,5.20
2019-03-12T21:07:30.329Z,5.20
2019-03-12T21:10:54.650Z,5.20
2019-03-12T21:13:48.760Z,5.20
2019-03-12T21:17:05.516Z,5.30
2019-03-12T21:19:48.887Z,5.30
2019-03-12T21:22:52.134Z,5.30
2019-03-12T21:25:50.777Z,5.30
2019-03-12T21:28:56.237Z,5.40
2019-03-12T21:31:26.575Z,5.40
2019-03-12T21:33:56.919Z,5.40
2019-03-12T21:36:27.246Z,5.40
2019-03-12T21:38:57.628Z,5.50
2019-03-12T21:41:27.959Z,5.50
2019-03-12T21:43:58.322Z,5.50
2019-03-12T21:46:28.653Z,5.50
2019-03-12T21:48:59.009Z,5.50
2019-03-12T21:51:29.336Z,5.50
2019-03-12T21:53:59.766Z,5.40
2019-03-12T21:56:30.119Z,5.40
2019-03-12T21:59:00.695Z,5.40
2019-03-12T22:01:31.034Z,5.30
2019-03-12T22:04:01.405Z,5.30
2019-03-12T22:06:31.745Z,5.40
2019-03-12T22:09:02.095Z,5.40
2019-03-12T22:11:34.046Z,5.40
2019-03-12T22:14:04.398Z,5.40
2019-03-12T22:16:34.761Z,5.40
2019-03-12T22:19:05.167Z,5.40
2019-03-12T22:21:45.836Z,5.50
2019-03-12T22:24:17.833Z,5.50
2019-03-12T22:26:48.161Z,5.50
2019-03-12T22:29:18.506Z,5.60
2019-03-12T22:31:48.858Z,5.60
2019-03-12T22:34:19.200Z,5.60
2019-03-12T22:36:49.554Z,5.70
2019-03-12T22:39:19.886Z,5.70
2019-03-12T22:41:50.236Z,5.80
2019-03-12T22:44:20.563Z,5.80
2019-03-12T22:46:50.909Z,5.90
2019-03-12T22:49:22.217Z,5.90
2019-03-12T22:51:52.569Z,5.90
2019-03-12T22:54:22.902Z,6.00
2019-03-12T22:56:53.249Z,6.00
2019-03-12T22:59:24.292Z,5.90
2019-03-12T23:02:12.199Z,6.00
2019-03-12T23:05:00.476Z,6.00
2019-03-12T23:07:48.687Z,6.00
2019-03-12T23:10:20.795Z,6.00
2019-03-12T23:12:53.300Z,5.90
2019-03-12T23:15:23.944Z,5.90
2019-03-12T23:17:54.358Z,5.80
2019-03-12T23:20:24.928Z,5.80
2019-03-12T23:22:55.448Z,5.80
2019-03-12T23:25:25.775Z,5.70
2019-03-12T23:27:56.116Z,5.70
2019-03-12T23:30:28.715Z,5.70
2019-03-12T23:32:58.995Z,5.60
2019-03-12T23:35:29.345Z,5.60
2019-03-12T23:37:59.680Z,5.70
2019-03-12T23:40:30.977Z,5.70
2019-03-12T23:43:01.331Z,5.60
2019-03-12T23:45:31.691Z,5.60
2019-03-12T23:48:02.064Z,5.60
2019-03-12T23:50:32.392Z,5.70
2019-03-12T23:53:02.812Z,5.70
2019-03-12T23:55:33.158Z,5.80
2019-03-12T23:58:03.580Z,5.90
